sensor_id;sensor_type;location;lat;lon;timestamp;temperature;humidity
26099;DHT22;13860;52.370;6.764;2024-01-07T00:00:34;2.40;90.00
26099;DHT22;13860;52.370;6.764;2024-01-07T00:03:45;2.40;90.00
26099;DHT22;13860;52.370;6.764;2024-01-07T00:06:51;2.40;90.00
26099;DHT22;13860;52.370;6.764;2024-01-07T00:09:59;2.40;90.00
26099;DHT22;13860;52.370;6.764;2024-01-07T00:13:05;2.40;90.00
26099;DHT22;13860;52.370;6.764;2024-01-07T00:16:13;2.40;90.00
26099;DHT22;13860;52.370;6.764;2024-01-07T00:19:21;2.40;90.00
26099;DHT22;13860;52.370;6.764;2024-01-07T00:22:29;2.40;90.00
26099;DHT22;13860;52.370;6.764;2024-01-07T00:25:34;2.40;90.00
26099;DHT22;13860;52.370;6.764;2024-01-07T00:28:43;2.40;90.00
26099;DHT22;13860;52.370;6.764;2024-01-07T00:31:48;2.30;90.00
26099;DHT22;13860;52.370;6.764;2024-01-07T00:34:59;2.30;90.00
26099;DHT22;13860;52.370;6.764;2024-01-07T00:38:04;2.30;90.00
26099;DHT22;13860;52.370;6.764;2024-01-07T00:41:12;2.30;90.00
26099;DHT22;13860;52.370;6.764;2024-01-07T00:44:18;2.20;90.00
26099;DHT22;13860;52.370;6.764;2024-01-07T00:47:25;2.20;90.00
26099;DHT22;13860;52.370;6.764;2024-01-07T00:50:33;2.20;90.00
26099;DHT22;13860;52.370;6.764;2024-01-07T00:53:41;2.20;90.00
26099;DHT22;13860;52.370;6.764;2024-01-07T00:56:47;2.20;90.00
26099;DHT22;13860;52.370;6.764;2024-01-07T00:59:55;2.20;90.00
26099;DHT22;13860;52.370;6.764;2024-01-07T01:03:00;2.10;90.00
26099;DHT22;13860;52.370;6.764;2024-01-07T01:06:11;2.10;90.00
26099;DHT22;13860;52.370;6.764;2024-01-07T01:09:17;2.10;90.00
26099;DHT22;13860;52.370;6.764;2024-01-07T01:12:25;2.10;90.10
26099;DHT22;13860;52.370;6.764;2024-01-07T01:15:31;2.10;90.00
26099;DHT22;13860;52.370;6.764;2024-01-07T01:18:39;2.10;90.00
26099;DHT22;13860;52.370;6.764;2024-01-07T01:21:47;2.10;90.00
26099;DHT22;13860;52.370;6.764;2024-01-07T01:24:55;2.10;90.00
26099;DHT22;13860;52.370;6.764;2024-01-07T01:28:01;2.00;90.00
26099;DHT22;13860;52.370;6.764;2024-01-07T01:31:13;2.00;90.00
26099;DHT22;13860;52.370;6.764;2024-01-07T01:34:19;2.10;90.10
26099;DHT22;13860;52.370;6.764;2024-01-07T01:37:30;2.10;90.10
26099;DHT22;13860;52.370;6.764;2024-01-07T01:40:35;2.10;90.00
26099;DHT22;13860;52.370;6.764;2024-01-07T01:43:43;2.00;90.00
26099;DHT22;13860;52.370;6.764;2024-01-07T01:46:49;2.00;90.00
26099;DHT22;13860;52.370;6.764;2024-01-07T01:49:57;2.00;90.00
26099;DHT22;13860;52.370;6.764;2024-01-07T01:53:13;2.00;90.00
26099;DHT22;13860;52.370;6.764;2024-01-07T01:56:22;2.10;90.00
26099;DHT22;13860;52.370;6.764;2024-01-07T01:59:28;2.10;90.00
26099;DHT22;13860;52.370;6.764;2024-01-07T02:02:36;2.00;90.00
26099;DHT22;13860;52.370;6.764;2024-01-07T02:05:42;2.00;90.00
26099;DHT22;13860;52.370;6.764;2024-01-07T02:08:52;2.00;90.00
26099;DHT22;13860;52.370;6.764;2024-01-07T02:12:07;2.00;90.00
26099;DHT22;13860;52.370;6.764;2024-01-07T02:15:16;2.00;90.00
26099;DHT22;13860;52.370;6.764;2024-01-07T02:18:22;2.00;89.90
26099;DHT22;13860;52.370;6.764;2024-01-07T02:21:30;2.00;90.00
26099;DHT22;13860;52.370;6.764;2024-01-07T02:24:43;2.00;90.00
26099;DHT22;13860;52.370;6.764;2024-01-07T02:27:49;2.00;90.00
26099;DHT22;13860;52.370;6.764;2024-01-07T02:30:57;2.00;90.00
26099;DHT22;13860;52.370;6.764;2024-01-07T02:34:04;2.00;89.90
26099;DHT22;13860;52.370;6.764;2024-01-07T02:37:13;2.00;89.80
26099;DHT22;13860;52.370;6.764;2024-01-07T02:40:21;1.90;89.80
26099;DHT22;13860;52.370;6.764;2024-01-07T02:43:29;1.90;89.90
26099;DHT22;13860;52.370;6.764;2024-01-07T02:46:35;1.90;89.90
26099;DHT22;13860;52.370;6.764;2024-01-07T02:49:42;1.90;89.90
26099;DHT22;13860;52.370;6.764;2024-01-07T02:52:49;1.90;89.80
26099;DHT22;13860;52.370;6.764;2024-01-07T02:55:59;1.90;89.90
26099;DHT22;13860;52.370;6.764;2024-01-07T02:59:05;1.90;89.80
26099;DHT22;13860;52.370;6.764;2024-01-07T03:02:15;1.90;89.80
26099;DHT22;13860;52.370;6.764;2024-01-07T03:05:21;1.90;89.80
26099;DHT22;13860;52.370;6.764;2024-01-07T03:08:29;1.90;90.10
26099;DHT22;13860;52.370;6.764;2024-01-07T03:11:39;1.90;89.80
26099;DHT22;13860;52.370;6.764;2024-01-07T03:14:47;1.90;89.80
26099;DHT22;13860;52.370;6.764;2024-01-07T03:17:53;1.80;89.70
26099;DHT22;13860;52.370;6.764;2024-01-07T03:21:00;1.80;89.60
26099;DHT22;13860;52.370;6.764;2024-01-07T03:24:06;1.80;89.60
26099;DHT22;13860;52.370;6.764;2024-01-07T03:27:17;1.80;90.10
26099;DHT22;13860;52.370;6.764;2024-01-07T03:30:23;1.80;89.60
26099;DHT22;13860;52.370;6.764;2024-01-07T03:33:31;1.80;89.70
26099;DHT22;13860;52.370;6.764;2024-01-07T03:36:37;1.80;89.70
26099;DHT22;13860;52.370;6.764;2024-01-07T03:39:45;1.80;89.60
26099;DHT22;13860;52.370;6.764;2024-01-07T03:42:54;1.80;89.50
26099;DHT22;13860;52.370;6.764;2024-01-07T03:46:03;1.70;89.50
26099;DHT22;13860;52.370;6.764;2024-01-07T03:49:08;1.70;89.50
26099;DHT22;13860;52.370;6.764;2024-01-07T03:52:16;1.70;89.50
26099;DHT22;13860;52.370;6.764;2024-01-07T03:55:23;1.70;89.40
26099;DHT22;13860;52.370;6.764;2024-01-07T03:58:33;1.70;89.50
26099;DHT22;13860;52.370;6.764;2024-01-07T04:01:39;1.70;89.50
26099;DHT22;13860;52.370;6.764;2024-01-07T04:04:47;1.70;89.50
26099;DHT22;13860;52.370;6.764;2024-01-07T04:07:53;1.70;89.50
26099;DHT22;13860;52.370;6.764;2024-01-07T04:11:03;1.60;89.40
26099;DHT22;13860;52.370;6.764;2024-01-07T04:14:14;1.60;89.40
26099;DHT22;13860;52.370;6.764;2024-01-07T04:17:23;1.60;89.40
26099;DHT22;13860;52.370;6.764;2024-01-07T04:20:28;1.60;89.50
26099;DHT22;13860;52.370;6.764;2024-01-07T04:23:36;1.60;89.40
26099;DHT22;13860;52.370;6.764;2024-01-07T04:26:41;1.60;89.40
26099;DHT22;13860;52.370;6.764;2024-01-07T04:29:52;1.60;89.30
26099;DHT22;13860;52.370;6.764;2024-01-07T04:32:57;1.50;89.30
26099;DHT22;13860;52.370;6.764;2024-01-07T04:36:06;1.50;89.30
26099;DHT22;13860;52.370;6.764;2024-01-07T04:39:12;1.60;89.40
26099;DHT22;13860;52.370;6.764;2024-01-07T04:42:19;1.50;89.30
26099;DHT22;13860;52.370;6.764;2024-01-07T04:45:29;1.60;89.30
26099;DHT22;13860;52.370;6.764;2024-01-07T04:48:36;1.50;89.30
26099;DHT22;13860;52.370;6.764;2024-01-07T04:51:42;1.50;89.30
26099;DHT22;13860;52.370;6.764;2024-01-07T04:54:53;1.50;89.30
26099;DHT22;13860;52.370;6.764;2024-01-07T04:57:59;1.50;89.30
26099;DHT22;13860;52.370;6.764;2024-01-07T05:01:09;1.50;89.30
26099;DHT22;13860;52.370;6.764;2024-01-07T05:04:15;1.50;89.20
26099;DHT22;13860;52.370;6.764;2024-01-07T05:07:23;1.50;89.90
26099;DHT22;13860;52.370;6.764;2024-01-07T05:10:29;1.50;89.30
26099;DHT22;13860;52.370;6.764;2024-01-07T05:13:37;1.50;89.20
26099;DHT22;13860;52.370;6.764;2024-01-07T05:16:45;1.50;89.20
26099;DHT22;13860;52.370;6.764;2024-01-07T05:19:52;1.50;89.20
26099;DHT22;13860;52.370;6.764;2024-01-07T05:22:58;1.40;89.20
26099;DHT22;13860;52.370;6.764;2024-01-07T05:26:06;1.40;89.20
26099;DHT22;13860;52.370;6.764;2024-01-07T05:29:11;1.50;89.30
26099;DHT22;13860;52.370;6.764;2024-01-07T05:32:21;1.50;89.20
26099;DHT22;13860;52.370;6.764;2024-01-07T05:35:27;1.40;89.10
26099;DHT22;13860;52.370;6.764;2024-01-07T05:38:35;1.40;89.10
26099;DHT22;13860;52.370;6.764;2024-01-07T05:41:40;1.40;89.10
26099;DHT22;13860;52.370;6.764;2024-01-07T05:44:48;1.40;89.00
26099;DHT22;13860;52.370;6.764;2024-01-07T05:47:56;1.40;89.00
26099;DHT22;13860;52.370;6.764;2024-01-07T05:51:04;1.40;89.10
26099;DHT22;13860;52.370;6.764;2024-01-07T05:54:09;1.40;89.00
26099;DHT22;13860;52.370;6.764;2024-01-07T05:57:17;1.40;89.00
26099;DHT22;13860;52.370;6.764;2024-01-07T06:00:22;1.40;89.00
26099;DHT22;13860;52.370;6.764;2024-01-07T06:03:32;1.40;89.00
26099;DHT22;13860;52.370;6.764;2024-01-07T06:06:39;1.30;88.90
26099;DHT22;13860;52.370;6.764;2024-01-07T06:09:47;1.30;88.90
26099;DHT22;13860;52.370;6.764;2024-01-07T06:12:52;1.30;88.90
26099;DHT22;13860;52.370;6.764;2024-01-07T06:16:00;1.30;88.90
26099;DHT22;13860;52.370;6.764;2024-01-07T06:19:08;1.30;88.90
26099;DHT22;13860;52.370;6.764;2024-01-07T06:22:16;1.30;88.90
26099;DHT22;13860;52.370;6.764;2024-01-07T06:25:21;1.30;88.90
26099;DHT22;13860;52.370;6.764;2024-01-07T06:28:31;1.30;88.90
26099;DHT22;13860;52.370;6.764;2024-01-07T06:31:42;1.20;88.80
26099;DHT22;13860;52.370;6.764;2024-01-07T06:34:52;1.20;88.70
26099;DHT22;13860;52.370;6.764;2024-01-07T06:37:57;1.20;88.80
26099;DHT22;13860;52.370;6.764;2024-01-07T06:41:05;1.20;88.80
26099;DHT22;13860;52.370;6.764;2024-01-07T06:44:10;1.20;88.80
26099;DHT22;13860;52.370;6.764;2024-01-07T06:47:18;1.10;88.70
26099;DHT22;13860;52.370;6.764;2024-01-07T06:50:26;1.10;88.70
26099;DHT22;13860;52.370;6.764;2024-01-07T06:53:34;1.10;88.70
26099;DHT22;13860;52.370;6.764;2024-01-07T06:56:39;1.00;88.70
26099;DHT22;13860;52.370;6.764;2024-01-07T06:59:47;1.00;88.70
26099;DHT22;13860;52.370;6.764;2024-01-07T07:02:53;1.00;88.70
26099;DHT22;13860;52.370;6.764;2024-01-07T07:06:03;1.00;88.70
26099;DHT22;13860;52.370;6.764;2024-01-07T07:09:09;1.00;88.70
26099;DHT22;13860;52.370;6.764;2024-01-07T07:12:17;1.00;88.70
26099;DHT22;13860;52.370;6.764;2024-01-07T07:15:23;1.00;88.70
26099;DHT22;13860;52.370;6.764;2024-01-07T07:18:33;0.90;88.70
26099;DHT22;13860;52.370;6.764;2024-01-07T07:21:42;1.00;88.70
26099;DHT22;13860;52.370;6.764;2024-01-07T07:24:50;1.00;88.60
26099;DHT22;13860;52.370;6.764;2024-01-07T07:27:58;1.00;88.60
26099;DHT22;13860;52.370;6.764;2024-01-07T07:31:06;0.90;88.60
26099;DHT22;13860;52.370;6.764;2024-01-07T07:34:12;0.90;88.50
26099;DHT22;13860;52.370;6.764;2024-01-07T07:37:22;0.90;88.40
26099;DHT22;13860;52.370;6.764;2024-01-07T07:40:28;0.90;88.40
26099;DHT22;13860;52.370;6.764;2024-01-07T07:43:35;0.90;89.10
26099;DHT22;13860;52.370;6.764;2024-01-07T07:46:41;0.80;88.40
26099;DHT22;13860;52.370;6.764;2024-01-07T07:49:48;0.80;88.50
26099;DHT22;13860;52.370;6.764;2024-01-07T07:52:57;0.80;88.50
26099;DHT22;13860;52.370;6.764;2024-01-07T07:56:06;0.80;88.40
26099;DHT22;13860;52.370;6.764;2024-01-07T07:59:11;0.80;88.50
26099;DHT22;13860;52.370;6.764;2024-01-07T08:02:19;0.80;88.40
26099;DHT22;13860;52.370;6.764;2024-01-07T08:05:24;0.70;88.40
26099;DHT22;13860;52.370;6.764;2024-01-07T08:08:35;0.70;88.40
26099;DHT22;13860;52.370;6.764;2024-01-07T08:11:40;0.70;88.40
26099;DHT22;13860;52.370;6.764;2024-01-07T08:14:48;0.80;88.50
26099;DHT22;13860;52.370;6.764;2024-01-07T08:17:53;0.70;88.40
26099;DHT22;13860;52.370;6.764;2024-01-07T08:21:01;0.80;88.40
26099;DHT22;13860;52.370;6.764;2024-01-07T08:24:09;0.70;88.30
26099;DHT22;13860;52.370;6.764;2024-01-07T08:27:17;0.80;88.30
26099;DHT22;13860;52.370;6.764;2024-01-07T08:30:23;0.80;88.20
26099;DHT22;13860;52.370;6.764;2024-01-07T08:33:30;0.70;88.20
26099;DHT22;13860;52.370;6.764;2024-01-07T08:36:36;0.70;88.10
26099;DHT22;13860;52.370;6.764;2024-01-07T08:39:46;0.70;88.10
26099;DHT22;13860;52.370;6.764;2024-01-07T08:42:52;0.70;88.10
26099;DHT22;13860;52.370;6.764;2024-01-07T08:46:00;0.70;88.10
26099;DHT22;13860;52.370;6.764;2024-01-07T08:49:07;0.80;88.10
26099;DHT22;13860;52.370;6.764;2024-01-07T08:52:14;0.70;88.00
26099;DHT22;13860;52.370;6.764;2024-01-07T08:55:23;0.70;88.00
26099;DHT22;13860;52.370;6.764;2024-01-07T08:58:30;0.70;88.10
26099;DHT22;13860;52.370;6.764;2024-01-07T09:01:36;0.70;88.00
26099;DHT22;13860;52.370;6.764;2024-01-07T09:04:43;0.70;88.00
26099;DHT22;13860;52.370;6.764;2024-01-07T09:07:49;0.70;88.10
26099;DHT22;13860;52.370;6.764;2024-01-07T09:10:59;0.70;88.00
26099;DHT22;13860;52.370;6.764;2024-01-07T09:14:05;0.70;87.90
26099;DHT22;13860;52.370;6.764;2024-01-07T09:17:12;0.70;87.90
26099;DHT22;13860;52.370;6.764;2024-01-07T09:20:19;0.70;87.80
26099;DHT22;13860;52.370;6.764;2024-01-07T09:23:27;0.70;87.80
26099;DHT22;13860;52.370;6.764;2024-01-07T09:26:35;0.80;87.90
26099;DHT22;13860;52.370;6.764;2024-01-07T09:29:42;0.80;87.90
26099;DHT22;13860;52.370;6.764;2024-01-07T09:32:48;0.80;87.80
26099;DHT22;13860;52.370;6.764;2024-01-07T09:35:56;0.80;87.70
26099;DHT22;13860;52.370;6.764;2024-01-07T09:39:16;0.80;87.70
26099;DHT22;13860;52.370;6.764;2024-01-07T09:42:28;0.80;87.70
26099;DHT22;13860;52.370;6.764;2024-01-07T09:45:36;0.80;88.10
26099;DHT22;13860;52.370;6.764;2024-01-07T09:48:45;0.80;87.60
26099;DHT22;13860;52.370;6.764;2024-01-07T09:51:57;0.80;87.60
26099;DHT22;13860;52.370;6.764;2024-01-07T09:55:09;0.80;87.60
26099;DHT22;13860;52.370;6.764;2024-01-07T09:58:19;0.80;87.50
26099;DHT22;13860;52.370;6.764;2024-01-07T10:01:27;0.80;87.50
26099;DHT22;13860;52.370;6.764;2024-01-07T10:04:33;0.80;87.40
26099;DHT22;13860;52.370;6.764;2024-01-07T10:07:40;0.80;87.50
26099;DHT22;13860;52.370;6.764;2024-01-07T10:10:48;0.80;87.40
26099;DHT22;13860;52.370;6.764;2024-01-07T10:14:02;0.80;87.40
26099;DHT22;13860;52.370;6.764;2024-01-07T10:17:17;0.90;87.40
26099;DHT22;13860;52.370;6.764;2024-01-07T10:20:29;1.00;87.50
26099;DHT22;13860;52.370;6.764;2024-01-07T10:23:34;1.00;87.50
26099;DHT22;13860;52.370;6.764;2024-01-07T10:26:42;1.10;87.50
26099;DHT22;13860;52.370;6.764;2024-01-07T10:29:50;1.10;87.40
26099;DHT22;13860;52.370;6.764;2024-01-07T10:32:59;1.20;87.40
26099;DHT22;13860;52.370;6.764;2024-01-07T10:36:06;1.20;87.20
26099;DHT22;13860;52.370;6.764;2024-01-07T10:39:14;1.20;87.10
26099;DHT22;13860;52.370;6.764;2024-01-07T10:42:20;1.20;87.10
26099;DHT22;13860;52.370;6.764;2024-01-07T10:45:30;1.20;86.90
26099;DHT22;13860;52.370;6.764;2024-01-07T10:48:38;1.20;86.70
26099;DHT22;13860;52.370;6.764;2024-01-07T10:51:46;1.20;86.70
26099;DHT22;13860;52.370;6.764;2024-01-07T10:54:57;1.20;86.70
26099;DHT22;13860;52.370;6.764;2024-01-07T10:58:10;1.20;86.70
26099;DHT22;13860;52.370;6.764;2024-01-07T11:01:19;1.20;86.70
26099;DHT22;13860;52.370;6.764;2024-01-07T11:04:31;1.20;86.70
26099;DHT22;13860;52.370;6.764;2024-01-07T11:07:41;1.20;86.70
26099;DHT22;13860;52.370;6.764;2024-01-07T11:10:55;1.30;86.80
26099;DHT22;13860;52.370;6.764;2024-01-07T11:14:02;1.30;86.80
26099;DHT22;13860;52.370;6.764;2024-01-07T11:17:12;1.30;86.80
26099;DHT22;13860;52.370;6.764;2024-01-07T11:20:21;1.30;86.70
26099;DHT22;13860;52.370;6.764;2024-01-07T11:23:32;1.30;86.60
26099;DHT22;13860;52.370;6.764;2024-01-07T11:26:40;1.30;86.60
26099;DHT22;13860;52.370;6.764;2024-01-07T11:29:53;1.40;86.70
26099;DHT22;13860;52.370;6.764;2024-01-07T11:33:04;1.40;86.60
26099;DHT22;13860;52.370;6.764;2024-01-07T11:36:12;1.40;86.60
26099;DHT22;13860;52.370;6.764;2024-01-07T11:39:18;1.50;87.30
26099;DHT22;13860;52.370;6.764;2024-01-07T11:42:26;1.50;86.60
26099;DHT22;13860;52.370;6.764;2024-01-07T11:45:32;1.50;86.50
26099;DHT22;13860;52.370;6.764;2024-01-07T11:48:44;1.50;86.50
26099;DHT22;13860;52.370;6.764;2024-01-07T11:51:51;1.60;86.50
26099;DHT22;13860;52.370;6.764;2024-01-07T11:54:58;1.60;86.50
26099;DHT22;13860;52.370;6.764;2024-01-07T11:58:05;1.60;86.40
26099;DHT22;13860;52.370;6.764;2024-01-07T12:01:14;1.60;86.30
26099;DHT22;13860;52.370;6.764;2024-01-07T12:04:23;1.70;86.30
26099;DHT22;13860;52.370;6.764;2024-01-07T12:07:33;1.70;86.10
26099;DHT22;13860;52.370;6.764;2024-01-07T12:10:40;1.70;86.10
26099;DHT22;13860;52.370;6.764;2024-01-07T12:13:48;1.70;86.20
26099;DHT22;13860;52.370;6.764;2024-01-07T12:16:55;1.70;86.10
26099;DHT22;13860;52.370;6.764;2024-01-07T12:20:06;1.70;86.00
26099;DHT22;13860;52.370;6.764;2024-01-07T12:23:12;1.80;86.00
26099;DHT22;13860;52.370;6.764;2024-01-07T12:26:20;1.80;86.00
26099;DHT22;13860;52.370;6.764;2024-01-07T12:29:27;1.90;86.00
26099;DHT22;13860;52.370;6.764;2024-01-07T12:32:35;1.80;85.80
26099;DHT22;13860;52.370;6.764;2024-01-07T12:35:43;1.80;85.80
26099;DHT22;13860;52.370;6.764;2024-01-07T12:38:52;1.80;85.70
26099;DHT22;13860;52.370;6.764;2024-01-07T12:41:58;1.80;85.70
26099;DHT22;13860;52.370;6.764;2024-01-07T12:45:06;1.80;85.70
26099;DHT22;13860;52.370;6.764;2024-01-07T12:48:17;1.90;85.70
26099;DHT22;13860;52.370;6.764;2024-01-07T12:51:27;1.90;85.60
26099;DHT22;13860;52.370;6.764;2024-01-07T12:54:33;1.90;85.60
26099;DHT22;13860;52.370;6.764;2024-01-07T12:57:41;1.90;85.60
26099;DHT22;13860;52.370;6.764;2024-01-07T13:00:49;1.90;85.40
26099;DHT22;13860;52.370;6.764;2024-01-07T13:03:57;2.00;85.50
26099;DHT22;13860;52.370;6.764;2024-01-07T13:07:09;2.00;85.40
26099;DHT22;13860;52.370;6.764;2024-01-07T13:10:16;1.90;85.30
26099;DHT22;13860;52.370;6.764;2024-01-07T13:13:23;2.00;85.30
26099;DHT22;13860;52.370;6.764;2024-01-07T13:16:31;2.00;85.30
26099;DHT22;13860;52.370;6.764;2024-01-07T13:19:37;2.00;85.10
26099;DHT22;13860;52.370;6.764;2024-01-07T13:22:47;2.00;85.10
26099;DHT22;13860;52.370;6.764;2024-01-07T13:25:53;2.00;85.10
26099;DHT22;13860;52.370;6.764;2024-01-07T13:29:01;2.00;85.10
26099;DHT22;13860;52.370;6.764;2024-01-07T13:32:07;2.00;85.00
26099;DHT22;13860;52.370;6.764;2024-01-07T13:35:14;2.00;85.00
26099;DHT22;13860;52.370;6.764;2024-01-07T13:38:23;2.00;84.90
26099;DHT22;13860;52.370;6.764;2024-01-07T13:41:30;2.00;84.90
26099;DHT22;13860;52.370;6.764;2024-01-07T13:44:36;2.00;84.70
26099;DHT22;13860;52.370;6.764;2024-01-07T13:47:51;2.00;84.70
26099;DHT22;13860;52.370;6.764;2024-01-07T13:51:00;2.00;84.80
26099;DHT22;13860;52.370;6.764;2024-01-07T13:54:10;2.00;84.80
26099;DHT22;13860;52.370;6.764;2024-01-07T13:57:17;2.00;84.70
26099;DHT22;13860;52.370;6.764;2024-01-07T14:00:25;2.00;84.60
26099;DHT22;13860;52.370;6.764;2024-01-07T14:03:35;2.00;84.60
26099;DHT22;13860;52.370;6.764;2024-01-07T14:06:42;2.00;84.60
26099;DHT22;13860;52.370;6.764;2024-01-07T14:09:53;2.00;84.60
26099;DHT22;13860;52.370;6.764;2024-01-07T14:13:01;2.00;84.50
26099;DHT22;13860;52.370;6.764;2024-01-07T14:16:06;2.00;84.60
26099;DHT22;13860;52.370;6.764;2024-01-07T14:19:14;2.00;84.50
26099;DHT22;13860;52.370;6.764;2024-01-07T14:22:20;2.00;84.50
26099;DHT22;13860;52.370;6.764;2024-01-07T14:25:30;2.00;84.40
26099;DHT22;13860;52.370;6.764;2024-01-07T14:28:36;2.00;84.40
26099;DHT22;13860;52.370;6.764;2024-01-07T14:31:44;2.00;84.30
26099;DHT22;13860;52.370;6.764;2024-01-07T14:34:50;2.00;84.30
26099;DHT22;13860;52.370;6.764;2024-01-07T14:37:58;2.00;84.30
26099;DHT22;13860;52.370;6.764;2024-01-07T14:41:11;2.00;84.40
26099;DHT22;13860;52.370;6.764;2024-01-07T14:44:19;2.00;84.30
26099;DHT22;13860;52.370;6.764;2024-01-07T14:47:38;2.00;84.40
26099;DHT22;13860;52.370;6.764;2024-01-07T14:50:45;2.00;84.30
26099;DHT22;13860;52.370;6.764;2024-01-07T14:53:54;2.00;84.30
26099;DHT22;13860;52.370;6.764;2024-01-07T14:57:05;2.00;84.20
26099;DHT22;13860;52.370;6.764;2024-01-07T15:00:12;2.00;84.30
26099;DHT22;13860;52.370;6.764;2024-01-07T15:03:20;2.00;84.30
26099;DHT22;13860;52.370;6.764;2024-01-07T15:06:26;1.90;84.20
26099;DHT22;13860;52.370;6.764;2024-01-07T15:09:33;1.90;84.20
26099;DHT22;13860;52.370;6.764;2024-01-07T15:12:42;1.90;84.20
26099;DHT22;13860;52.370;6.764;2024-01-07T15:15:57;1.90;84.10
26099;DHT22;13860;52.370;6.764;2024-01-07T15:19:03;1.90;84.70
26099;DHT22;13860;52.370;6.764;2024-01-07T15:22:11;1.90;84.10
26099;DHT22;13860;52.370;6.764;2024-01-07T15:25:18;1.90;84.00
26099;DHT22;13860;52.370;6.764;2024-01-07T15:28:29;1.80;84.00
26099;DHT22;13860;52.370;6.764;2024-01-07T15:31:35;1.80;83.90
26099;DHT22;13860;52.370;6.764;2024-01-07T15:34:43;1.80;83.90
26099;DHT22;13860;52.370;6.764;2024-01-07T15:37:49;1.80;83.90
26099;DHT22;13860;52.370;6.764;2024-01-07T15:40:59;1.80;84.00
26099;DHT22;13860;52.370;6.764;2024-01-07T15:44:07;1.70;83.90
26099;DHT22;13860;52.370;6.764;2024-01-07T15:47:17;1.70;83.80
26099;DHT22;13860;52.370;6.764;2024-01-07T15:50:22;1.70;84.50
26099;DHT22;13860;52.370;6.764;2024-01-07T15:53:30;1.70;83.90
26099;DHT22;13860;52.370;6.764;2024-01-07T15:56:37;1.60;83.80
26099;DHT22;13860;52.370;6.764;2024-01-07T15:59:47;1.60;83.80
26099;DHT22;13860;52.370;6.764;2024-01-07T16:02:52;1.60;83.90
26099;DHT22;13860;52.370;6.764;2024-01-07T16:06:01;1.50;83.80
26099;DHT22;13860;52.370;6.764;2024-01-07T16:09:08;1.60;83.90
26099;DHT22;13860;52.370;6.764;2024-01-07T16:12:15;1.50;83.80
26099;DHT22;13860;52.370;6.764;2024-01-07T16:15:23;1.50;83.80
26099;DHT22;13860;52.370;6.764;2024-01-07T16:18:32;1.50;83.80
26099;DHT22;13860;52.370;6.764;2024-01-07T16:21:38;1.50;83.70
26099;DHT22;13860;52.370;6.764;2024-01-07T16:24:46;1.40;83.70
26099;DHT22;13860;52.370;6.764;2024-01-07T16:27:52;1.40;83.80
26099;DHT22;13860;52.370;6.764;2024-01-07T16:31:02;1.40;83.80
26099;DHT22;13860;52.370;6.764;2024-01-07T16:34:08;1.40;83.90
26099;DHT22;13860;52.370;6.764;2024-01-07T16:37:15;1.40;83.90
26099;DHT22;13860;52.370;6.764;2024-01-07T16:40:21;1.30;83.80
26099;DHT22;13860;52.370;6.764;2024-01-07T16:43:29;1.30;83.80
26099;DHT22;13860;52.370;6.764;2024-01-07T16:46:39;1.30;83.80
26099;DHT22;13860;52.370;6.764;2024-01-07T16:49:46;1.30;83.80
26099;DHT22;13860;52.370;6.764;2024-01-07T16:53:12;1.20;83.80
26099;DHT22;13860;52.370;6.764;2024-01-07T16:56:20;1.20;83.90
26099;DHT22;13860;52.370;6.764;2024-01-07T16:59:26;1.20;83.90
26099;DHT22;13860;52.370;6.764;2024-01-07T17:02:36;1.20;83.90
26099;DHT22;13860;52.370;6.764;2024-01-07T17:05:42;1.20;83.90
26099;DHT22;13860;52.370;6.764;2024-01-07T17:08:50;1.20;83.80
26099;DHT22;13860;52.370;6.764;2024-01-07T17:11:55;1.20;83.80
26099;DHT22;13860;52.370;6.764;2024-01-07T17:15:04;1.10;83.80
26099;DHT22;13860;52.370;6.764;2024-01-07T17:18:12;1.10;83.90
26099;DHT22;13860;52.370;6.764;2024-01-07T17:21:20;1.10;83.90
26099;DHT22;13860;52.370;6.764;2024-01-07T17:24:26;1.10;83.90
26099;DHT22;13860;52.370;6.764;2024-01-07T17:27:37;1.10;83.90
26099;DHT22;13860;52.370;6.764;2024-01-07T17:30:43;1.00;83.90
26099;DHT22;13860;52.370;6.764;2024-01-07T17:33:54;1.00;83.90
26099;DHT22;13860;52.370;6.764;2024-01-07T17:36:59;1.00;84.30
26099;DHT22;13860;52.370;6.764;2024-01-07T17:40:10;1.00;83.90
26099;DHT22;13860;52.370;6.764;2024-01-07T17:43:16;0.90;83.90
26099;DHT22;13860;52.370;6.764;2024-01-07T17:46:23;0.90;83.90
26099;DHT22;13860;52.370;6.764;2024-01-07T17:49:31;0.90;83.90
26099;DHT22;13860;52.370;6.764;2024-01-07T17:52:39;0.90;84.00
26099;DHT22;13860;52.370;6.764;2024-01-07T17:55:44;0.90;84.00
26099;DHT22;13860;52.370;6.764;2024-01-07T17:58:52;0.90;84.00
26099;DHT22;13860;52.370;6.764;2024-01-07T18:01:57;0.90;84.00
26099;DHT22;13860;52.370;6.764;2024-01-07T18:05:10;0.80;84.00
26099;DHT22;13860;52.370;6.764;2024-01-07T18:08:16;0.80;84.00
26099;DHT22;13860;52.370;6.764;2024-01-07T18:11:36;0.80;84.10
26099;DHT22;13860;52.370;6.764;2024-01-07T18:14:42;0.90;84.20
26099;DHT22;13860;52.370;6.764;2024-01-07T18:17:49;0.80;84.00
26099;DHT22;13860;52.370;6.764;2024-01-07T18:20:57;0.80;84.00
26099;DHT22;13860;52.370;6.764;2024-01-07T18:24:05;0.80;84.00
26099;DHT22;13860;52.370;6.764;2024-01-07T18:27:11;0.80;84.00
26099;DHT22;13860;52.370;6.764;2024-01-07T18:30:18;0.80;84.00
26099;DHT22;13860;52.370;6.764;2024-01-07T18:33:24;0.70;84.00
26099;DHT22;13860;52.370;6.764;2024-01-07T18:36:36;0.70;84.10
26099;DHT22;13860;52.370;6.764;2024-01-07T18:39:41;0.70;84.60
26099;DHT22;13860;52.370;6.764;2024-01-07T18:42:49;0.70;84.00
26099;DHT22;13860;52.370;6.764;2024-01-07T18:45:54;0.60;84.00
26099;DHT22;13860;52.370;6.764;2024-01-07T18:49:02;0.60;84.00
26099;DHT22;13860;52.370;6.764;2024-01-07T18:52:11;0.60;84.00
26099;DHT22;13860;52.370;6.764;2024-01-07T18:55:19;0.50;83.90
26099;DHT22;13860;52.370;6.764;2024-01-07T18:58:25;0.50;83.90
26099;DHT22;13860;52.370;6.764;2024-01-07T19:01:34;0.50;84.50
26099;DHT22;13860;52.370;6.764;2024-01-07T19:04:41;0.40;83.80
26099;DHT22;13860;52.370;6.764;2024-01-07T19:07:52;0.40;83.80
26099;DHT22;13860;52.370;6.764;2024-01-07T19:10:57;0.30;83.80
26099;DHT22;13860;52.370;6.764;2024-01-07T19:14:05;0.30;83.80
26099;DHT22;13860;52.370;6.764;2024-01-07T19:17:11;0.20;83.70
26099;DHT22;13860;52.370;6.764;2024-01-07T19:20:18;0.10;83.70
26099;DHT22;13860;52.370;6.764;2024-01-07T19:23:35;0.10;83.90
26099;DHT22;13860;52.370;6.764;2024-01-07T19:26:44;0.10;83.80
26099;DHT22;13860;52.370;6.764;2024-01-07T19:29:50;0.00;83.80
26099;DHT22;13860;52.370;6.764;2024-01-07T19:32:58;0.00;83.80
26099;DHT22;13860;52.370;6.764;2024-01-07T19:36:06;0.00;83.80
26099;DHT22;13860;52.370;6.764;2024-01-07T19:39:16;-0.10;83.70
26099;DHT22;13860;52.370;6.764;2024-01-07T19:42:22;-0.10;83.70
26099;DHT22;13860;52.370;6.764;2024-01-07T19:45:30;-0.20;83.70
26099;DHT22;13860;52.370;6.764;2024-01-07T19:48:35;-0.20;83.70
26099;DHT22;13860;52.370;6.764;2024-01-07T19:51:43;-0.20;83.60
26099;DHT22;13860;52.370;6.764;2024-01-07T19:54:54;-0.30;83.60
26099;DHT22;13860;52.370;6.764;2024-01-07T19:58:02;-0.30;83.70
26099;DHT22;13860;52.370;6.764;2024-01-07T20:01:08;-0.40;83.70
26099;DHT22;13860;52.370;6.764;2024-01-07T20:04:16;-0.40;83.70